sensor_id;sensor_type;location;lat;lon;timestamp;P1;durP1;ratioP1;P2;durP2;ratioP2
3149;SDS011;32503;47.748;8.960;2023-04-21T00:00:58;3.43;;;2.97;;
3149;SDS011;32503;47.748;8.960;2023-04-21T00:03:26;3.00;;;2.80;;
3149;SDS011;32503;47.748;8.960;2023-04-21T00:05:54;3.70;;;3.33;;
3149;SDS011;32503;47.748;8.960;2023-04-21T00:08:22;3.30;;;3.10;;
3149;SDS011;32503;47.748;8.960;2023-04-21T00:10:51;3.60;;;3.30;;
3149;SDS011;32503;47.748;8.960;2023-04-21T00:13:18;3.17;;;2.97;;
3149;SDS011;32503;47.748;8.960;2023-04-21T00:15:45;3.27;;;3.07;;
3149;SDS011;32503;47.748;8.960;2023-04-21T00:18:12;3.77;;;3.50;;
3149;SDS011;32503;47.748;8.960;2023-04-21T00:20:40;3.77;;;3.53;;
3149;SDS011;32503;47.748;8.960;2023-04-21T00:23:07;3.30;;;3.10;;
3149;SDS011;32503;47.748;8.960;2023-04-21T00:25:36;2.87;;;2.60;;
3149;SDS011;32503;47.748;8.960;2023-04-21T00:28:04;4.33;;;3.20;;
3149;SDS011;32503;47.748;8.960;2023-04-21T00:30:31;7.00;;;3.87;;
3149;SDS011;32503;47.748;8.960;2023-04-21T00:32:58;4.00;;;3.70;;
3149;SDS011;32503;47.748;8.960;2023-04-21T00:35:25;5.20;;;3.93;;
3149;SDS011;32503;47.748;8.960;2023-04-21T00:37:52;3.47;;;3.27;;
3149;SDS011;32503;47.748;8.960;2023-04-21T00:40:19;4.50;;;4.17;;
3149;SDS011;32503;47.748;8.960;2023-04-21T00:42:46;3.70;;;3.40;;
3149;SDS011;32503;47.748;8.960;2023-04-21T00:45:15;3.70;;;3.23;;
3149;SDS011;32503;47.748;8.960;2023-04-21T00:47:42;3.40;;;3.20;;
3149;SDS011;32503;47.748;8.960;2023-04-21T00:50:09;3.30;;;3.10;;
3149;SDS011;32503;47.748;8.960;2023-04-21T00:52:38;4.33;;;3.40;;
3149;SDS011;32503;47.748;8.960;2023-04-21T00:55:06;4.03;;;3.63;;
3149;SDS011;32503;47.748;8.960;2023-04-21T00:57:34;6.13;;;4.43;;
3149;SDS011;32503;47.748;8.960;2023-04-21T01:00:02;4.30;;;3.83;;
3149;SDS011;32503;47.748;8.960;2023-04-21T01:02:34;3.93;;;3.60;;
3149;SDS011;32503;47.748;8.960;2023-04-21T01:05:03;3.77;;;3.47;;
3149;SDS011;32503;47.748;8.960;2023-04-21T01:07:33;4.33;;;3.23;;
3149;SDS011;32503;47.748;8.960;2023-04-21T01:10:00;2.97;;;2.77;;
3149;SDS011;32503;47.748;8.960;2023-04-21T01:12:27;4.07;;;3.70;;
3149;SDS011;32503;47.748;8.960;2023-04-21T01:14:54;3.67;;;3.47;;
3149;SDS011;32503;47.748;8.960;2023-04-21T01:17:21;3.77;;;3.57;;
3149;SDS011;32503;47.748;8.960;2023-04-21T01:19:51;3.53;;;3.33;;
3149;SDS011;32503;47.748;8.960;2023-04-21T01:22:22;3.23;;;2.93;;
3149;SDS011;32503;47.748;8.960;2023-04-21T01:24:50;3.53;;;3.30;;
3149;SDS011;32503;47.748;8.960;2023-04-21T01:27:18;4.10;;;3.20;;
3149;SDS011;32503;47.748;8.960;2023-04-21T01:29:49;3.43;;;3.23;;
3149;SDS011;32503;47.748;8.960;2023-04-21T01:32:18;3.50;;;3.30;;
3149;SDS011;32503;47.748;8.960;2023-04-21T01:34:47;4.40;;;4.00;;
3149;SDS011;32503;47.748;8.960;2023-04-21T01:37:16;4.90;;;4.37;;
3149;SDS011;32503;47.748;8.960;2023-04-21T01:39:48;6.70;;;3.80;;
3149;SDS011;32503;47.748;8.960;2023-04-21T01:42:18;3.53;;;3.33;;
3149;SDS011;32503;47.748;8.960;2023-04-21T01:44:46;4.40;;;4.00;;
3149;SDS011;32503;47.748;8.960;2023-04-21T01:47:14;3.70;;;3.47;;
3149;SDS011;32503;47.748;8.960;2023-04-21T01:49:41;3.43;;;3.23;;
3149;SDS011;32503;47.748;8.960;2023-04-21T01:52:08;3.00;;;2.70;;
3149;SDS011;32503;47.748;8.960;2023-04-21T01:54:36;5.20;;;3.70;;
3149;SDS011;32503;47.748;8.960;2023-04-21T01:57:04;3.90;;;3.70;;
3149;SDS011;32503;47.748;8.960;2023-04-21T01:59:32;4.17;;;3.77;;
3149;SDS011;32503;47.748;8.960;2023-04-21T02:01:59;3.63;;;3.33;;
3149;SDS011;32503;47.748;8.960;2023-04-21T02:04:26;4.20;;;3.90;;
3149;SDS011;32503;47.748;8.960;2023-04-21T02:06:53;3.50;;;3.30;;
3149;SDS011;32503;47.748;8.960;2023-04-21T02:09:20;3.80;;;3.50;;
3149;SDS011;32503;47.748;8.960;2023-04-21T02:11:47;3.33;;;3.13;;
3149;SDS011;32503;47.748;8.960;2023-04-21T02:14:15;3.80;;;3.50;;
3149;SDS011;32503;47.748;8.960;2023-04-21T02:16:42;4.13;;;3.83;;
3149;SDS011;32503;47.748;8.960;2023-04-21T02:19:09;4.37;;;3.93;;
3149;SDS011;32503;47.748;8.960;2023-04-21T02:21:36;4.37;;;4.07;;
3149;SDS011;32503;47.748;8.960;2023-04-21T02:24:03;4.30;;;4.00;;
3149;SDS011;32503;47.748;8.960;2023-04-21T02:26:30;3.50;;;3.23;;
3149;SDS011;32503;47.748;8.960;2023-04-21T02:28:57;4.50;;;4.10;;
3149;SDS011;32503;47.748;8.960;2023-04-21T02:31:26;3.77;;;3.47;;
3149;SDS011;32503;47.748;8.960;2023-04-21T02:33:53;5.13;;;4.80;;
3149;SDS011;32503;47.748;8.960;2023-04-21T02:36:20;4.27;;;3.90;;
3149;SDS011;32503;47.748;8.960;2023-04-21T02:38:47;3.63;;;3.43;;
3149;SDS011;32503;47.748;8.960;2023-04-21T02:41:15;4.23;;;3.83;;
3149;SDS011;32503;47.748;8.960;2023-04-21T02:43:42;5.10;;;4.43;;
3149;SDS011;32503;47.748;8.960;2023-04-21T02:46:09;3.60;;;3.30;;
3149;SDS011;32503;47.748;8.960;2023-04-21T02:48:37;4.50;;;4.20;;
3149;SDS011;32503;47.748;8.960;2023-04-21T02:51:04;4.40;;;3.57;;
3149;SDS011;32503;47.748;8.960;2023-04-21T02:53:37;3.50;;;3.20;;
3149;SDS011;32503;47.748;8.960;2023-04-21T02:56:04;4.23;;;3.83;;
3149;SDS011;32503;47.748;8.960;2023-04-21T02:58:33;6.80;;;3.83;;
3149;SDS011;32503;47.748;8.960;2023-04-21T03:01:00;4.57;;;4.10;;
3149;SDS011;32503;47.748;8.960;2023-04-21T03:03:28;3.97;;;3.67;;
3149;SDS011;32503;47.748;8.960;2023-04-21T03:05:57;4.33;;;4.00;;
3149;SDS011;32503;47.748;8.960;2023-04-21T03:08:25;4.90;;;4.50;;
3149;SDS011;32503;47.748;8.960;2023-04-21T03:10:52;3.70;;;3.37;;
3149;SDS011;32503;47.748;8.960;2023-04-21T03:13:19;4.23;;;3.83;;
3149;SDS011;32503;47.748;8.960;2023-04-21T03:15:47;4.13;;;3.80;;
3149;SDS011;32503;47.748;8.960;2023-04-21T03:18:14;6.67;;;5.50;;
3149;SDS011;32503;47.748;8.960;2023-04-21T03:20:41;5.40;;;4.30;;
3149;SDS011;32503;47.748;8.960;2023-04-21T03:23:10;5.60;;;5.07;;
3149;SDS011;32503;47.748;8.960;2023-04-21T03:25:37;4.90;;;4.50;;
3149;SDS011;32503;47.748;8.960;2023-04-21T03:28:04;7.30;;;5.47;;
3149;SDS011;32503;47.748;8.960;2023-04-21T03:30:32;6.57;;;5.17;;
3149;SDS011;32503;47.748;8.960;2023-04-21T03:32:59;5.30;;;4.80;;
3149;SDS011;32503;47.748;8.960;2023-04-21T03:35:26;4.40;;;4.00;;
3149;SDS011;32503;47.748;8.960;2023-04-21T03:37:53;5.50;;;5.00;;
3149;SDS011;32503;47.748;8.960;2023-04-21T03:40:21;5.63;;;5.03;;
3149;SDS011;32503;47.748;8.960;2023-04-21T03:42:50;5.93;;;5.33;;
3149;SDS011;32503;47.748;8.960;2023-04-21T03:45:17;5.80;;;4.93;;
3149;SDS011;32503;47.748;8.960;2023-04-21T03:47:46;6.37;;;5.13;;
3149;SDS011;32503;47.748;8.960;2023-04-21T03:50:13;5.87;;;5.37;;
3149;SDS011;32503;47.748;8.960;2023-04-21T03:52:41;5.10;;;4.70;;
3149;SDS011;32503;47.748;8.960;2023-04-21T03:55:08;4.27;;;3.93;;
3149;SDS011;32503;47.748;8.960;2023-04-21T03:57:38;5.83;;;5.33;;
3149;SDS011;32503;47.748;8.960;2023-04-21T04:00:06;6.00;;;5.20;;
3149;SDS011;32503;47.748;8.960;2023-04-21T04:02:35;5.23;;;4.20;;
3149;SDS011;32503;47.748;8.960;2023-04-21T04:05:02;4.73;;;4.43;;
3149;SDS011;32503;47.748;8.960;2023-04-21T04:07:30;4.73;;;4.30;;
3149;SDS011;32503;47.748;8.960;2023-04-21T04:09:57;6.33;;;5.53;;
3149;SDS011;32503;47.748;8.960;2023-04-21T04:12:24;6.10;;;5.60;;
3149;SDS011;32503;47.748;8.960;2023-04-21T04:14:53;9.17;;;5.27;;
3149;SDS011;32503;47.748;8.960;2023-04-21T04:17:20;6.50;;;5.23;;
3149;SDS011;32503;47.748;8.960;2023-04-21T04:19:47;8.50;;;7.33;;
3149;SDS011;32503;47.748;8.960;2023-04-21T04:22:14;8.70;;;6.83;;
3149;SDS011;32503;47.748;8.960;2023-04-21T04:24:41;10.97;;;7.00;;
3149;SDS011;32503;47.748;8.960;2023-04-21T04:27:09;6.20;;;5.30;;
3149;SDS011;32503;47.748;8.960;2023-04-21T04:29:39;6.70;;;5.97;;
3149;SDS011;32503;47.748;8.960;2023-04-21T04:32:07;8.13;;;5.77;;
3149;SDS011;32503;47.748;8.960;2023-04-21T04:34:35;8.60;;;5.90;;
3149;SDS011;32503;47.748;8.960;2023-04-21T04:37:02;9.00;;;7.00;;
3149;SDS011;32503;47.748;8.960;2023-04-21T04:39:30;10.67;;;7.27;;
3149;SDS011;32503;47.748;8.960;2023-04-21T04:41:57;11.67;;;8.37;;
3149;SDS011;32503;47.748;8.960;2023-04-21T04:44:25;13.40;;;8.50;;
3149;SDS011;32503;47.748;8.960;2023-04-21T04:46:52;8.40;;;7.20;;
3149;SDS011;32503;47.748;8.960;2023-04-21T04:49:22;13.23;;;8.60;;
3149;SDS011;32503;47.748;8.960;2023-04-21T04:51:49;10.33;;;7.43;;
3149;SDS011;32503;47.748;8.960;2023-04-21T04:54:16;10.13;;;6.90;;
3149;SDS011;32503;47.748;8.960;2023-04-21T04:56:43;7.43;;;6.33;;
3149;SDS011;32503;47.748;8.960;2023-04-21T04:59:10;6.93;;;6.23;;
3149;SDS011;32503;47.748;8.960;2023-04-21T05:01:37;7.03;;;6.30;;
3149;SDS011;32503;47.748;8.960;2023-04-21T05:04:05;6.60;;;5.70;;
3149;SDS011;32503;47.748;8.960;2023-04-21T05:06:34;9.87;;;6.87;;
3149;SDS011;32503;47.748;8.960;2023-04-21T05:09:01;11.90;;;7.00;;
3149;SDS011;32503;47.748;8.960;2023-04-21T05:11:29;7.20;;;6.20;;
3149;SDS011;32503;47.748;8.960;2023-04-21T05:13:56;11.53;;;7.60;;
3149;SDS011;32503;47.748;8.960;2023-04-21T05:16:27;12.90;;;8.90;;
3149;SDS011;32503;47.748;8.960;2023-04-21T05:18:54;10.40;;;7.70;;
3149;SDS011;32503;47.748;8.960;2023-04-21T05:21:26;8.87;;;7.20;;
3149;SDS011;32503;47.748;8.960;2023-04-21T05:23:55;13.83;;;7.60;;
3149;SDS011;32503;47.748;8.960;2023-04-21T05:26:23;9.70;;;7.70;;
3149;SDS011;32503;47.748;8.960;2023-04-21T05:28:51;7.90;;;6.80;;
3149;SDS011;32503;47.748;8.960;2023-04-21T05:31:18;8.70;;;7.13;;
3149;SDS011;32503;47.748;8.960;2023-04-21T05:33:45;12.17;;;8.70;;
3149;SDS011;32503;47.748;8.960;2023-04-21T05:36:12;10.93;;;8.57;;
3149;SDS011;32503;47.748;8.960;2023-04-21T05:38:39;9.93;;;7.20;;
3149;SDS011;32503;47.748;8.960;2023-04-21T05:41:08;7.33;;;6.63;;
3149;SDS011;32503;47.748;8.960;2023-04-21T05:43:35;8.77;;;6.93;;
3149;SDS011;32503;47.748;8.960;2023-04-21T05:46:02;7.73;;;7.00;;
3149;SDS011;32503;47.748;8.960;2023-04-21T05:48:34;9.00;;;7.60;;
3149;SDS011;32503;47.748;8.960;2023-04-21T05:51:07;10.83;;;8.63;;
3149;SDS011;32503;47.748;8.960;2023-04-21T05:53:35;10.70;;;7.80;;
3149;SDS011;32503;47.748;8.960;2023-04-21T05:56:02;11.80;;;8.27;;
3149;SDS011;32503;47.748;8.960;2023-04-21T05:58:32;10.37;;;8.03;;
3149;SDS011;32503;47.748;8.960;2023-04-21T06:00:59;15.97;;;10.33;;
3149;SDS011;32503;47.748;8.960;2023-04-21T06:03:26;12.77;;;9.63;;
3149;SDS011;32503;47.748;8.960;2023-04-21T06:05:55;13.63;;;9.80;;
3149;SDS011;32503;47.748;8.960;2023-04-21T06:08:22;11.53;;;8.90;;
3149;SDS011;32503;47.748;8.960;2023-04-21T06:10:49;11.60;;;10.40;;
3149;SDS011;32503;47.748;8.960;2023-04-21T06:13:16;14.30;;;9.97;;
3149;SDS011;32503;47.748;8.960;2023-04-21T06:15:45;14.00;;;9.63;;
3149;SDS011;32503;47.748;8.960;2023-04-21T06:18:12;15.00;;;10.63;;
3149;SDS011;32503;47.748;8.960;2023-04-21T06:20:40;13.20;;;9.53;;
3149;SDS011;32503;47.748;8.960;2023-04-21T06:23:07;19.03;;;12.40;;
3149;SDS011;32503;47.748;8.960;2023-04-21T06:25:34;17.70;;;10.93;;
3149;SDS011;32503;47.748;8.960;2023-04-21T06:28:01;14.87;;;9.70;;
3149;SDS011;32503;47.748;8.960;2023-04-21T06:30:28;17.27;;;10.00;;
3149;SDS011;32503;47.748;8.960;2023-04-21T06:32:57;15.87;;;10.13;;
3149;SDS011;32503;47.748;8.960;2023-04-21T06:35:24;16.53;;;10.97;;
3149;SDS011;32503;47.748;8.960;2023-04-21T06:37:51;14.67;;;10.60;;
3149;SDS011;32503;47.748;8.960;2023-04-21T06:40:18;13.50;;;9.13;;
3149;SDS011;32503;47.748;8.960;2023-04-21T06:42:45;10.93;;;8.30;;
3149;SDS011;32503;47.748;8.960;2023-04-21T06:45:12;11.97;;;9.37;;
3149;SDS011;32503;47.748;8.960;2023-04-21T06:47:39;9.97;;;7.17;;
3149;SDS011;32503;47.748;8.960;2023-04-21T06:50:08;11.93;;;8.60;;
3149;SDS011;32503;47.748;8.960;2023-04-21T06:52:36;15.30;;;9.53;;
3149;SDS011;32503;47.748;8.960;2023-04-21T06:55:03;12.07;;;8.57;;
3149;SDS011;32503;47.748;8.960;2023-04-21T06:57:31;18.83;;;9.67;;
3149;SDS011;32503;47.748;8.960;2023-04-21T06:59:58;13.50;;;8.37;;
3149;SDS011;32503;47.748;8.960;2023-04-21T07:02:25;13.33;;;9.17;;
3149;SDS011;32503;47.748;8.960;2023-04-21T07:04:52;15.30;;;10.10;;
3149;SDS011;32503;47.748;8.960;2023-04-21T07:07:21;16.07;;;8.77;;
3149;SDS011;32503;47.748;8.960;2023-04-21T07:09:48;7.07;;;6.27;;
3149;SDS011;32503;47.748;8.960;2023-04-21T07:12:15;8.83;;;6.50;;
3149;SDS011;32503;47.748;8.960;2023-04-21T07:14:42;8.13;;;7.13;;
3149;SDS011;32503;47.748;8.960;2023-04-21T07:17:09;6.87;;;6.27;;
3149;SDS011;32503;47.748;8.960;2023-04-21T07:19:36;5.10;;;4.70;;
3149;SDS011;32503;47.748;8.960;2023-04-21T07:22:03;4.83;;;4.37;;
3149;SDS011;32503;47.748;8.960;2023-04-21T07:24:32;5.20;;;4.90;;
3149;SDS011;32503;47.748;8.960;2023-04-21T07:26:59;7.80;;;6.10;;
3149;SDS011;32503;47.748;8.960;2023-04-21T07:29:27;5.17;;;4.77;;
3149;SDS011;32503;47.748;8.960;2023-04-21T07:31:54;4.57;;;4.17;;
3149;SDS011;32503;47.748;8.960;2023-04-21T07:34:22;4.80;;;4.47;;
3149;SDS011;32503;47.748;8.960;2023-04-21T07:36:49;5.90;;;5.50;;
3149;SDS011;32503;47.748;8.960;2023-04-21T07:39:17;5.40;;;4.90;;
3149;SDS011;32503;47.748;8.960;2023-04-21T07:41:45;5.63;;;5.13;;
3149;SDS011;32503;47.748;8.960;2023-04-21T07:44:12;5.03;;;4.77;;
3149;SDS011;32503;47.748;8.960;2023-04-21T07:46:40;4.70;;;4.40;;
3149;SDS011;32503;47.748;8.960;2023-04-21T07:49:07;5.10;;;4.60;;
3149;SDS011;32503;47.748;8.960;2023-04-21T07:51:34;5.03;;;4.53;;
3149;SDS011;32503;47.748;8.960;2023-04-21T07:54:01;5.73;;;5.23;;
3149;SDS011;32503;47.748;8.960;2023-04-21T07:56:28;5.17;;;4.63;;
3149;SDS011;32503;47.748;8.960;2023-04-21T07:58:56;5.20;;;4.80;;
3149;SDS011;32503;47.748;8.960;2023-04-21T08:01:23;6.77;;;6.03;;
3149;SDS011;32503;47.748;8.960;2023-04-21T08:03:51;6.53;;;5.57;;
3149;SDS011;32503;47.748;8.960;2023-04-21T08:06:18;6.53;;;5.93;;
3149;SDS011;32503;47.748;8.960;2023-04-21T08:08:45;5.50;;;5.13;;
3149;SDS011;32503;47.748;8.960;2023-04-21T08:11:12;7.20;;;6.60;;
3149;SDS011;32503;47.748;8.960;2023-04-21T08:13:39;5.80;;;4.63;;
3149;SDS011;32503;47.748;8.960;2023-04-21T08:16:07;5.77;;;4.40;;
3149;SDS011;32503;47.748;8.960;2023-04-21T08:18:34;5.10;;;4.70;;
3149;SDS011;32503;47.748;8.960;2023-04-21T08:21:01;4.80;;;4.50;;
3149;SDS011;32503;47.748;8.960;2023-04-21T08:23:29;4.33;;;4.03;;
3149;SDS011;32503;47.748;8.960;2023-04-21T08:25:56;3.83;;;3.47;;
3149;SDS011;32503;47.748;8.960;2023-04-21T08:28:23;3.80;;;3.50;;
3149;SDS011;32503;47.748;8.960;2023-04-21T08:30:50;4.40;;;4.10;;
3149;SDS011;32503;47.748;8.960;2023-04-21T08:33:18;3.97;;;3.70;;
3149;SDS011;32503;47.748;8.960;2023-04-21T08:35:45;3.80;;;3.60;;
3149;SDS011;32503;47.748;8.960;2023-04-21T08:38:12;4.17;;;3.87;;
3149;SDS011;32503;47.748;8.960;2023-04-21T08:40:39;3.50;;;3.30;;
3149;SDS011;32503;47.748;8.960;2023-04-21T08:43:07;4.03;;;3.73;;
3149;SDS011;32503;47.748;8.960;2023-04-21T08:45:34;3.70;;;3.50;;
3149;SDS011;32503;47.748;8.960;2023-04-21T08:48:02;4.97;;;4.57;;
3149;SDS011;32503;47.748;8.960;2023-04-21T08:50:32;3.77;;;3.57;;
3149;SDS011;32503;47.748;8.960;2023-04-21T08:53:01;4.30;;;4.07;;
3149;SDS011;32503;47.748;8.960;2023-04-21T08:55:29;4.40;;;4.10;;
3149;SDS011;32503;47.748;8.960;2023-04-21T08:57:57;5.60;;;5.10;;
3149;SDS011;32503;47.748;8.960;2023-04-21T09:00:24;4.20;;;3.90;;
3149;SDS011;32503;47.748;8.960;2023-04-21T09:02:52;3.73;;;3.53;;
3149;SDS011;32503;47.748;8.960;2023-04-21T09:05:21;4.77;;;4.53;;
3149;SDS011;32503;47.748;8.960;2023-04-21T09:07:52;3.57;;;3.37;;
3149;SDS011;32503;47.748;8.960;2023-04-21T09:10:32;5.90;;;3.70;;
3149;SDS011;32503;47.748;8.960;2023-04-21T09:13:08;4.37;;;4.07;;
3149;SDS011;32503;47.748;8.960;2023-04-21T09:15:39;4.17;;;3.87;;
3149;SDS011;32503;47.748;8.960;2023-04-21T09:18:09;6.10;;;5.50;;
3149;SDS011;32503;47.748;8.960;2023-04-21T09:20:39;4.53;;;4.10;;
3149;SDS011;32503;47.748;8.960;2023-04-21T09:23:09;3.60;;;3.30;;
3149;SDS011;32503;47.748;8.960;2023-04-21T09:25:37;5.93;;;5.43;;
3149;SDS011;32503;47.748;8.960;2023-04-21T09:28:06;4.40;;;4.07;;
3149;SDS011;32503;47.748;8.960;2023-04-21T09:30:34;4.23;;;3.90;;
3149;SDS011;32503;47.748;8.960;2023-04-21T09:33:01;4.20;;;3.90;;
3149;SDS011;32503;47.748;8.960;2023-04-21T09:35:31;4.60;;;4.30;;
3149;SDS011;32503;47.748;8.960;2023-04-21T09:38:00;2.90;;;2.80;;
3149;SDS011;32503;47.748;8.960;2023-04-21T09:40:30;3.63;;;3.33;;
3149;SDS011;32503;47.748;8.960;2023-04-21T09:42:58;3.73;;;3.43;;
3149;SDS011;32503;47.748;8.960;2023-04-21T09:45:27;4.20;;;3.80;;
3149;SDS011;32503;47.748;8.960;2023-04-21T09:47:55;3.10;;;2.90;;
3149;SDS011;32503;47.748;8.960;2023-04-21T09:50:24;3.10;;;2.90;;
3149;SDS011;32503;47.748;8.960;2023-04-21T09:52:53;3.00;;;2.73;;
3149;SDS011;32503;47.748;8.960;2023-04-21T09:55:23;4.00;;;3.70;;
3149;SDS011;32503;47.748;8.960;2023-04-21T09:57:57;3.57;;;3.27;;
3149;SDS011;32503;47.748;8.960;2023-04-21T10:00:26;3.80;;;3.50;;
3149;SDS011;32503;47.748;8.960;2023-04-21T10:02:56;3.80;;;3.50;;
3149;SDS011;32503;47.748;8.960;2023-04-21T10:05:25;3.40;;;3.20;;
3149;SDS011;32503;47.748;8.960;2023-04-21T10:07:53;4.57;;;3.00;;
3149;SDS011;32503;47.748;8.960;2023-04-21T10:10:22;2.97;;;2.77;;
3149;SDS011;32503;47.748;8.960;2023-04-21T10:12:52;3.27;;;3.07;;
3149;SDS011;32503;47.748;8.960;2023-04-21T10:15:31;3.10;;;2.90;;
3149;SDS011;32503;47.748;8.960;2023-04-21T10:18:10;3.60;;;3.40;;
3149;SDS011;32503;47.748;8.960;2023-04-21T10:20:55;3.70;;;3.27;;
3149;SDS011;32503;47.748;8.960;2023-04-21T10:23:27;4.30;;;4.00;;
3149;SDS011;32503;47.748;8.960;2023-04-21T10:26:03;3.37;;;3.17;;
3149;SDS011;32503;47.748;8.960;2023-04-21T10:31:27;3.77;;;3.47;;
3149;SDS011;32503;47.748;8.960;2023-04-21T10:36:48;2.77;;;2.67;;
3149;SDS011;32503;47.748;8.960;2023-04-21T10:39:43;2.87;;;2.73;;
3149;SDS011;32503;47.748;8.960;2023-04-21T10:42:17;3.60;;;3.40;;
3149;SDS011;32503;47.748;8.960;2023-04-21T10:45:04;3.63;;;3.40;;
3149;SDS011;32503;47.748;8.960;2023-04-21T10:47:41;3.37;;;3.17;;
3149;SDS011;32503;47.748;8.960;2023-04-21T10:50:16;3.40;;;3.20;;
3149;SDS011;32503;47.748;8.960;2023-04-21T10:52:53;3.50;;;3.20;;
3149;SDS011;32503;47.748;8.960;2023-04-21T10:55:35;3.70;;;3.50;;
3149;SDS011;32503;47.748;8.960;2023-04-21T10:58:04;3.60;;;3.40;;
3149;SDS011;32503;47.748;8.960;2023-04-21T11:00:33;3.30;;;3.20;;
3149;SDS011;32503;47.748;8.960;2023-04-21T11:03:04;3.00;;;2.90;;
3149;SDS011;32503;47.748;8.960;2023-04-21T11:05:34;3.27;;;3.17;;
3149;SDS011;32503;47.748;8.960;2023-04-21T11:08:06;2.63;;;2.53;;
3149;SDS011;32503;47.748;8.960;2023-04-21T11:10:49;2.77;;;2.57;;
3149;SDS011;32503;47.748;8.960;2023-04-21T11:13:20;3.90;;;3.50;;
3149;SDS011;32503;47.748;8.960;2023-04-21T11:15:56;3.20;;;3.00;;
3149;SDS011;32503;47.748;8.960;2023-04-21T11:18:37;3.87;;;3.57;;
3149;SDS011;32503;47.748;8.960;2023-04-21T11:21:10;3.60;;;3.40;;
3149;SDS011;32503;47.748;8.960;2023-04-21T11:23:47;3.07;;;2.90;;
3149;SDS011;32503;47.748;8.960;2023-04-21T11:26:15;3.60;;;3.40;;
3149;SDS011;32503;47.748;8.960;2023-04-21T11:28:46;2.57;;;2.47;;
3149;SDS011;32503;47.748;8.960;2023-04-21T11:31:14;2.50;;;2.40;;
3149;SDS011;32503;47.748;8.960;2023-04-21T11:33:43;2.00;;;1.90;;
3149;SDS011;32503;47.748;8.960;2023-04-21T11:36:10;2.77;;;2.67;;
3149;SDS011;32503;47.748;8.960;2023-04-21T11:38:37;3.33;;;3.03;;
3149;SDS011;32503;47.748;8.960;2023-04-21T11:41:06;2.60;;;2.50;;
3149;SDS011;32503;47.748;8.960;2023-04-21T11:43:34;2.87;;;2.67;;
3149;SDS011;32503;47.748;8.960;2023-04-21T11:46:12;2.70;;;2.60;;
3149;SDS011;32503;47.748;8.960;2023-04-21T11:48:44;2.10;;;2.00;;
3149;SDS011;32503;47.748;8.960;2023-04-21T11:51:14;2.60;;;2.50;;
3149;SDS011;32503;47.748;8.960;2023-04-21T11:53:45;1.87;;;1.77;;
3149;SDS011;32503;47.748;8.960;2023-04-21T11:56:15;1.90;;;1.80;;
3149;SDS011;32503;47.748;8.960;2023-04-21T11:58:45;2.20;;;2.10;;
3149;SDS011;32503;47.748;8.960;2023-04-21T12:01:14;2.00;;;1.90;;
3149;SDS011;32503;47.748;8.960;2023-04-21T12:03:41;2.23;;;2.13;;
3149;SDS011;32503;47.748;8.960;2023-04-21T12:06:19;2.10;;;2.00;;
3149;SDS011;32503;47.748;8.960;2023-04-21T12:08:48;1.60;;;1.50;;
3149;SDS011;32503;47.748;8.960;2023-04-21T12:11:21;1.70;;;1.60;;
3149;SDS011;32503;47.748;8.960;2023-04-21T12:13:49;1.97;;;1.87;;
3149;SDS011;32503;47.748;8.960;2023-04-21T12:16:17;1.77;;;1.67;;
3149;SDS011;32503;47.748;8.960;2023-04-21T12:18:44;2.10;;;2.00;;
3149;SDS011;32503;47.748;8.960;2023-04-21T12:21:15;1.53;;;1.43;;
3149;SDS011;32503;47.748;8.960;2023-04-21T12:23:42;2.07;;;1.97;;
3149;SDS011;32503;47.748;8.960;2023-04-21T12:26:09;1.70;;;1.60;;
3149;SDS011;32503;47.748;8.960;2023-04-21T12:28:37;1.77;;;1.67;;
3149;SDS011;32503;47.748;8.960;2023-04-21T12:31:04;1.63;;;1.53;;
3149;SDS011;32503;47.748;8.960;2023-04-21T12:33:31;1.50;;;1.40;;
3149;SDS011;32503;47.748;8.960;2023-04-21T12:35:58;1.30;;;1.20;;
3149;SDS011;32503;47.748;8.960;2023-04-21T12:38:27;1.13;;;1.03;;
3149;SDS011;32503;47.748;8.960;2023-04-21T12:40:54;1.50;;;1.40;;
3149;SDS011;32503;47.748;8.960;2023-04-21T12:43:21;1.40;;;1.30;;
3149;SDS011;32503;47.748;8.960;2023-04-21T12:45:48;1.20;;;1.10;;
3149;SDS011;32503;47.748;8.960;2023-04-21T12:48:16;1.70;;;1.60;;
3149;SDS011;32503;47.748;8.960;2023-04-21T12:50:44;3.40;;;1.83;;
3149;SDS011;32503;47.748;8.960;2023-04-21T12:53:11;1.20;;;1.10;;
3149;SDS011;32503;47.748;8.960;2023-04-21T12:55:40;1.43;;;1.33;;
3149;SDS011;32503;47.748;8.960;2023-04-21T12:58:07;1.37;;;1.27;;
3149;SDS011;32503;47.748;8.960;2023-04-21T13:00:36;1.20;;;1.10;;
3149;SDS011;32503;47.748;8.960;2023-04-21T13:03:04;1.20;;;1.10;;
3149;SDS011;32503;47.748;8.960;2023-04-21T13:05:31;1.10;;;1.10;;
3149;SDS011;32503;47.748;8.960;2023-04-21T13:07:58;0.77;;;0.77;;
3149;SDS011;32503;47.748;8.960;2023-04-21T13:10:25;0.80;;;0.80;;
3149;SDS011;32503;47.748;8.960;2023-04-21T13:12:56;0.93;;;0.83;;
3149;SDS011;32503;47.748;8.960;2023-04-21T13:15:24;1.20;;;1.10;;
3149;SDS011;32503;47.748;8.960;2023-04-21T13:17:51;0.80;;;0.80;;
3149;SDS011;32503;47.748;8.960;2023-04-21T13:20:18;1.13;;;1.03;;
3149;SDS011;32503;47.748;8.960;2023-04-21T13:22:46;0.80;;;0.73;;
3149;SDS011;32503;47.748;8.960;2023-04-21T13:25:13;1.37;;;1.23;;
3149;SDS011;32503;47.748;8.960;2023-04-21T13:27:40;1.30;;;1.20;;
3149;SDS011;32503;47.748;8.960;2023-04-21T13:30:09;0.87;;;0.87;;
3149;SDS011;32503;47.748;8.960;2023-04-21T13:32:39;1.17;;;1.10;;
3149;SDS011;32503;47.748;8.960;2023-04-21T13:35:07;0.70;;;0.70;;
3149;SDS011;32503;47.748;8.960;2023-04-21T13:37:35;1.10;;;1.07;;
3149;SDS011;32503;47.748;8.960;2023-04-21T13:40:03;1.20;;;1.00;;
3149;SDS011;32503;47.748;8.960;2023-04-21T13:42:34;1.37;;;1.27;;
3149;SDS011;32503;47.748;8.960;2023-04-21T13:45:02;2.30;;;2.20;;
3149;SDS011;32503;47.748;8.960;2023-04-21T13:47:32;2.40;;;2.30;;
3149;SDS011;32503;47.748;8.960;2023-04-21T13:50:00;2.93;;;2.73;;
3149;SDS011;32503;47.748;8.960;2023-04-21T13:52:27;3.20;;;3.00;;
3149;SDS011;32503;47.748;8.960;2023-04-21T13:54:54;3.70;;;3.40;;
3149;SDS011;32503;47.748;8.960;2023-04-21T13:57:21;3.20;;;3.07;;
3149;SDS011;32503;47.748;8.960;2023-04-21T13:59:50;2.80;;;2.70;;
3149;SDS011;32503;47.748;8.960;2023-04-21T14:02:18;2.77;;;2.57;;
3149;SDS011;32503;47.748;8.960;2023-04-21T14:04:48;2.83;;;2.73;;
3149;SDS011;32503;47.748;8.960;2023-04-21T14:07:15;3.33;;;3.13;;
3149;SDS011;32503;47.748;8.960;2023-04-21T14:09:43;2.70;;;2.50;;
3149;SDS011;32503;47.748;8.960;2023-04-21T14:12:10;2.70;;;2.60;;
3149;SDS011;32503;47.748;8.960;2023-04-21T14:14:37;3.13;;;2.93;;
3149;SDS011;32503;47.748;8.960;2023-04-21T14:17:05;3.33;;;3.13;;
3149;SDS011;32503;47.748;8.960;2023-04-21T14:19:32;2.70;;;2.60;;
3149;SDS011;32503;47.748;8.960;2023-04-21T14:22:01;2.97;;;2.87;;
3149;SDS011;32503;47.748;8.960;2023-04-21T14:24:28;3.73;;;3.43;;
3149;SDS011;32503;47.748;8.960;2023-04-21T14:26:56;2.80;;;2.60;;
3149;SDS011;32503;47.748;8.960;2023-04-21T14:29:23;2.90;;;2.80;;
3149;SDS011;32503;47.748;8.960;2023-04-21T14:31:50;3.07;;;2.87;;
3149;SDS011;32503;47.748;8.960;2023-04-21T14:34:21;3.10;;;3.00;;
3149;SDS011;32503;47.748;8.960;2023-04-21T14:36:50;2.97;;;2.77;;
3149;SDS011;32503;47.748;8.960;2023-04-21T14:39:18;2.97;;;2.77;;
3149;SDS011;32503;47.748;8.960;2023-04-21T14:41:46;3.73;;;2.90;;
3149;SDS011;32503;47.748;8.960;2023-04-21T14:44:13;2.90;;;2.70;;
3149;SDS011;32503;47.748;8.960;2023-04-21T14:46:40;2.97;;;2.87;;
3149;SDS011;32503;47.748;8.960;2023-04-21T14:49:07;2.47;;;2.37;;
3149;SDS011;32503;47.748;8.960;2023-04-21T14:51:34;2.20;;;2.10;;
3149;SDS011;32503;47.748;8.960;2023-04-21T14:54:03;2.40;;;2.20;;
3149;SDS011;32503;47.748;8.960;2023-04-21T14:56:32;2.47;;;2.30;;
3149;SDS011;32503;47.748;8.960;2023-04-21T14:58:59;1.80;;;1.70;;
3149;SDS011;32503;47.748;8.960;2023-04-21T15:01:26;1.70;;;1.60;;
3149;SDS011;32503;47.748;8.960;2023-04-21T15:03:53;1.60;;;1.50;;
3149;SDS011;32503;47.748;8.960;2023-04-21T15:06:23;2.10;;;2.00;;
3149;SDS011;32503;47.748;8.960;2023-04-21T15:08:52;1.90;;;1.80;;
3149;SDS011;32503;47.748;8.960;2023-04-21T15:11:19;2.40;;;1.87;;
3149;SDS011;32503;47.748;8.960;2023-04-21T15:13:47;2.43;;;2.33;;